SSEC Globe Logo

Space Science and Engineering Center

Regional Terminal Forecasts

KMSN 290520Z 2906/0106 29007KT P6SM SKC FM291400 18007KT
     P6SM FEW250 FM291800 20015G24KT P6SM SKC FM010000
     19013G21KT P6SM SKC WS020/21045KT=
TAF AMD KMKE 290912Z 2909/0112 26007KT P6SM SKC FM291900
     20014KT P6SM SKC FM010000 20012KT P6SM SKC
     WS020/21045KT=
TAF KGRB 290520Z 2906/0106 28010KT P6SM SKC FM290800 27007KT
     P6SM SKC FM291500 22009G15KT P6SM SCT100 FM291900
     19011G18KT P6SM SKC FM010100 21013G22KT P6SM SKC
     WS020/24040KT=
KAUW 290520Z 2906/0106 29008G13KT P6SM SKC FM290700 29005KT
     P6SM SKC FM291200 18006KT P6SM SCT100 FM291700
     17010G16KT P6SM SCT120 FM010100 20011G20KT P6SM SKC
     WS020/23040KT=
KEAU 290520Z 2906/0106 VRB03KT P6SM SKC FM291300 13005KT
     P6SM SKC FM291800 17013G21KT P6SM SKC FM292300 17009KT
     P6SM SKC FM010400 18010KT P6SM SKC WS020/22040KT=
KLSE 290521Z 2906/0106 VRB04KT P6SM SKC FM291200 15008KT
     P6SM SKC FM291600 19015G27KT P6SM SKC FM010100
     18015G26KT P6SM SKC WS020/21045KT=
KDBQ 290520Z 2906/0106 24005KT P6SM SKC FM290800 17005KT
     P6SM SKC FM291600 18016G24KT P6SM SKC FM010200
     19013G20KT P6SM SKC WS012/19038KT=
TAF KRFD 290520Z 2906/0106 28007KT P6SM SKC FM291000 19008KT
     P6SM SKC FM291900 20014G24KT P6SM FEW250 FM010000
     19012KT P6SM FEW250=
KORD 290909Z 2909/0112 25005KT P6SM SKC FM291800 21012G20KT
     P6SM SKC FM292300 19012KT P6SM FEW250=